sensor_id;sensor_type;location;lat;lon;timestamp;P1;durP1;ratioP1;P2;durP2;ratioP2
55465;SDS011;41329;41.594;23.810;2023-11-21T00:00:01;13.43;;;12.17;;
55465;SDS011;41329;41.594;23.810;2023-11-21T00:02:27;13.47;;;12.23;;
55465;SDS011;41329;41.594;23.810;2023-11-21T00:04:53;15.57;;;13.83;;
55465;SDS011;41329;41.594;23.810;2023-11-21T00:07:18;14.53;;;13.40;;
55465;SDS011;41329;41.594;23.810;2023-11-21T00:09:44;14.33;;;13.17;;
55465;SDS011;41329;41.594;23.810;2023-11-21T00:12:10;19.60;;;17.57;;
55465;SDS011;41329;41.594;23.810;2023-11-21T00:14:36;26.53;;;20.23;;
55465;SDS011;41329;41.594;23.810;2023-11-21T00:17:03;32.17;;;23.40;;
55465;SDS011;41329;41.594;23.810;2023-11-21T00:19:30;32.33;;;25.20;;
55465;SDS011;41329;41.594;23.810;2023-11-21T00:21:56;33.27;;;26.07;;
55465;SDS011;41329;41.594;23.810;2023-11-21T00:24:23;42.00;;;26.30;;
55465;SDS011;41329;41.594;23.810;2023-11-21T00:26:49;32.73;;;25.90;;
55465;SDS011;41329;41.594;23.810;2023-11-21T00:29:15;26.90;;;21.60;;
55465;SDS011;41329;41.594;23.810;2023-11-21T00:31:42;27.63;;;21.90;;
55465;SDS011;41329;41.594;23.810;2023-11-21T00:34:10;27.33;;;22.67;;
55465;SDS011;41329;41.594;23.810;2023-11-21T00:36:36;24.90;;;19.63;;
55465;SDS011;41329;41.594;23.810;2023-11-21T00:39:02;20.57;;;18.67;;
55465;SDS011;41329;41.594;23.810;2023-11-21T00:41:28;22.17;;;19.03;;
55465;SDS011;41329;41.594;23.810;2023-11-21T00:43:54;21.37;;;19.40;;
55465;SDS011;41329;41.594;23.810;2023-11-21T00:46:20;19.23;;;17.57;;
55465;SDS011;41329;41.594;23.810;2023-11-21T00:48:46;16.60;;;15.20;;
55465;SDS011;41329;41.594;23.810;2023-11-21T00:51:11;16.77;;;15.00;;
55465;SDS011;41329;41.594;23.810;2023-11-21T00:53:37;17.07;;;15.23;;
55465;SDS011;41329;41.594;23.810;2023-11-21T00:56:02;15.17;;;13.87;;
55465;SDS011;41329;41.594;23.810;2023-11-21T00:58:28;19.73;;;16.30;;
55465;SDS011;41329;41.594;23.810;2023-11-21T01:00:53;15.27;;;14.07;;
55465;SDS011;41329;41.594;23.810;2023-11-21T01:03:19;14.97;;;13.77;;
55465;SDS011;41329;41.594;23.810;2023-11-21T01:05:45;15.23;;;13.93;;
55465;SDS011;41329;41.594;23.810;2023-11-21T01:08:11;14.57;;;13.53;;
55465;SDS011;41329;41.594;23.810;2023-11-21T01:10:37;12.87;;;11.97;;
55465;SDS011;41329;41.594;23.810;2023-11-21T01:13:03;14.13;;;13.03;;
55465;SDS011;41329;41.594;23.810;2023-11-21T01:15:32;15.77;;;13.90;;
55465;SDS011;41329;41.594;23.810;2023-11-21T01:18:00;12.90;;;12.00;;
55465;SDS011;41329;41.594;23.810;2023-11-21T01:20:26;13.73;;;12.63;;
55465;SDS011;41329;41.594;23.810;2023-11-21T01:22:51;14.77;;;13.40;;
55465;SDS011;41329;41.594;23.810;2023-11-21T01:25:18;17.03;;;15.47;;
55465;SDS011;41329;41.594;23.810;2023-11-21T01:27:44;15.93;;;14.73;;
55465;SDS011;41329;41.594;23.810;2023-11-21T01:30:09;17.00;;;15.57;;
55465;SDS011;41329;41.594;23.810;2023-11-21T01:32:36;15.27;;;14.07;;
55465;SDS011;41329;41.594;23.810;2023-11-21T01:35:02;11.67;;;10.60;;
55465;SDS011;41329;41.594;23.810;2023-11-21T01:37:27;10.37;;;9.57;;
55465;SDS011;41329;41.594;23.810;2023-11-21T01:39:56;9.77;;;8.97;;
55465;SDS011;41329;41.594;23.810;2023-11-21T01:42:21;8.67;;;8.07;;
55465;SDS011;41329;41.594;23.810;2023-11-21T01:44:47;9.93;;;9.03;;
55465;SDS011;41329;41.594;23.810;2023-11-21T01:47:13;9.67;;;8.97;;
55465;SDS011;41329;41.594;23.810;2023-11-21T01:49:39;8.90;;;8.20;;
55465;SDS011;41329;41.594;23.810;2023-11-21T01:52:05;8.30;;;7.70;;
55465;SDS011;41329;41.594;23.810;2023-11-21T01:54:31;8.93;;;8.20;;
55465;SDS011;41329;41.594;23.810;2023-11-21T01:56:57;10.00;;;9.23;;
55465;SDS011;41329;41.594;23.810;2023-11-21T01:59:28;10.60;;;9.60;;
55465;SDS011;41329;41.594;23.810;2023-11-21T02:01:59;11.40;;;10.60;;
55465;SDS011;41329;41.594;23.810;2023-11-21T02:04:25;10.90;;;10.20;;
55465;SDS011;41329;41.594;23.810;2023-11-21T02:06:50;11.53;;;10.83;;
55465;SDS011;41329;41.594;23.810;2023-11-21T02:09:16;13.03;;;12.03;;
55465;SDS011;41329;41.594;23.810;2023-11-21T02:11:42;11.57;;;10.57;;
55465;SDS011;41329;41.594;23.810;2023-11-21T02:14:09;11.40;;;10.50;;
55465;SDS011;41329;41.594;23.810;2023-11-21T02:16:35;12.50;;;11.27;;
55465;SDS011;41329;41.594;23.810;2023-11-21T02:19:02;13.47;;;12.37;;
55465;SDS011;41329;41.594;23.810;2023-11-21T02:21:31;13.80;;;12.18;;
55465;SDS011;41329;41.594;23.810;2023-11-21T02:23:57;15.07;;;13.73;;
55465;SDS011;41329;41.594;23.810;2023-11-21T02:26:23;15.20;;;13.73;;
55465;SDS011;41329;41.594;23.810;2023-11-21T02:28:50;15.30;;;13.70;;
55465;SDS011;41329;41.594;23.810;2023-11-21T02:31:18;14.03;;;12.77;;
55465;SDS011;41329;41.594;23.810;2023-11-21T02:33:44;14.07;;;12.97;;
55465;SDS011;41329;41.594;23.810;2023-11-21T02:36:09;15.10;;;13.77;;
55465;SDS011;41329;41.594;23.810;2023-11-21T02:38:35;13.37;;;12.37;;
55465;SDS011;41329;41.594;23.810;2023-11-21T02:41:00;14.57;;;13.33;;
55465;SDS011;41329;41.594;23.810;2023-11-21T02:43:25;15.37;;;14.20;;
55465;SDS011;41329;41.594;23.810;2023-11-21T02:45:51;14.70;;;13.60;;
55465;SDS011;41329;41.594;23.810;2023-11-21T02:48:16;14.77;;;13.57;;
55465;SDS011;41329;41.594;23.810;2023-11-21T02:50:42;14.23;;;13.13;;
55465;SDS011;41329;41.594;23.810;2023-11-21T02:53:08;12.87;;;11.97;;
55465;SDS011;41329;41.594;23.810;2023-11-21T02:55:35;14.63;;;13.27;;
55465;SDS011;41329;41.594;23.810;2023-11-21T02:58:02;13.63;;;12.60;;
55465;SDS011;41329;41.594;23.810;2023-11-21T03:00:28;12.47;;;11.47;;
55465;SDS011;41329;41.594;23.810;2023-11-21T03:02:55;12.93;;;12.03;;
55465;SDS011;41329;41.594;23.810;2023-11-21T03:05:21;12.77;;;11.87;;
55465;SDS011;41329;41.594;23.810;2023-11-21T03:07:46;12.53;;;11.63;;
55465;SDS011;41329;41.594;23.810;2023-11-21T03:10:12;12.73;;;11.73;;
55465;SDS011;41329;41.594;23.810;2023-11-21T03:12:37;12.03;;;11.13;;
55465;SDS011;41329;41.594;23.810;2023-11-21T03:15:06;11.83;;;11.03;;
55465;SDS011;41329;41.594;23.810;2023-11-21T03:17:33;11.43;;;10.52;;
55465;SDS011;41329;41.594;23.810;2023-11-21T03:19:59;12.17;;;11.27;;
55465;SDS011;41329;41.594;23.810;2023-11-21T03:22:25;11.30;;;10.60;;
55465;SDS011;41329;41.594;23.810;2023-11-21T03:24:51;10.27;;;9.50;;
55465;SDS011;41329;41.594;23.810;2023-11-21T03:27:17;10.97;;;10.23;;
55465;SDS011;41329;41.594;23.810;2023-11-21T03:29:43;17.60;;;16.10;;
55465;SDS011;41329;41.594;23.810;2023-11-21T03:32:10;15.97;;;14.67;;
55465;SDS011;41329;41.594;23.810;2023-11-21T03:34:35;16.43;;;14.77;;
55465;SDS011;41329;41.594;23.810;2023-11-21T03:37:17;15.27;;;13.97;;
55465;SDS011;41329;41.594;23.810;2023-11-21T03:39:43;19.10;;;16.40;;
55465;SDS011;41329;41.594;23.810;2023-11-21T03:42:08;17.10;;;14.90;;
55465;SDS011;41329;41.594;23.810;2023-11-21T03:44:33;19.60;;;16.77;;
55465;SDS011;41329;41.594;23.810;2023-11-21T03:46:59;39.73;;;21.47;;
55465;SDS011;41329;41.594;23.810;2023-11-21T03:49:24;43.90;;;21.00;;
55465;SDS011;41329;41.594;23.810;2023-11-21T03:51:50;22.97;;;18.47;;
55465;SDS011;41329;41.594;23.810;2023-11-21T03:54:15;20.47;;;17.03;;
55465;SDS011;41329;41.594;23.810;2023-11-21T03:56:40;16.57;;;15.07;;
55465;SDS011;41329;41.594;23.810;2023-11-21T03:59:06;14.50;;;13.00;;
55465;SDS011;41329;41.594;23.810;2023-11-21T04:01:31;12.50;;;11.37;;
55465;SDS011;41329;41.594;23.810;2023-11-21T04:03:57;12.33;;;11.27;;
55465;SDS011;41329;41.594;23.810;2023-11-21T04:06:22;13.03;;;11.90;;
55465;SDS011;41329;41.594;23.810;2023-11-21T04:08:48;13.57;;;12.57;;
55465;SDS011;41329;41.594;23.810;2023-11-21T04:11:13;17.20;;;14.37;;
55465;SDS011;41329;41.594;23.810;2023-11-21T04:13:39;20.13;;;14.87;;
55465;SDS011;41329;41.594;23.810;2023-11-21T04:16:06;20.80;;;15.03;;
55465;SDS011;41329;41.594;23.810;2023-11-21T04:18:33;16.83;;;15.10;;
55465;SDS011;41329;41.594;23.810;2023-11-21T04:20:59;14.33;;;13.23;;
55465;SDS011;41329;41.594;23.810;2023-11-21T04:23:24;14.27;;;12.93;;
55465;SDS011;41329;41.594;23.810;2023-11-21T04:25:50;14.47;;;13.10;;
55465;SDS011;41329;41.594;23.810;2023-11-21T04:28:15;15.80;;;14.37;;
55465;SDS011;41329;41.594;23.810;2023-11-21T04:30:41;15.33;;;14.07;;
55465;SDS011;41329;41.594;23.810;2023-11-21T04:33:06;16.63;;;15.17;;
55465;SDS011;41329;41.594;23.810;2023-11-21T04:35:32;19.53;;;17.73;;
55465;SDS011;41329;41.594;23.810;2023-11-21T04:37:58;16.47;;;15.07;;
55465;SDS011;41329;41.594;23.810;2023-11-21T04:40:23;15.90;;;14.43;;
55465;SDS011;41329;41.594;23.810;2023-11-21T04:42:49;14.23;;;13.20;;
55465;SDS011;41329;41.594;23.810;2023-11-21T04:45:14;13.27;;;12.17;;
55465;SDS011;41329;41.594;23.810;2023-11-21T04:47:40;13.20;;;12.07;;
55465;SDS011;41329;41.594;23.810;2023-11-21T04:50:06;12.27;;;11.27;;
55465;SDS011;41329;41.594;23.810;2023-11-21T04:52:32;13.70;;;12.50;;
55465;SDS011;41329;41.594;23.810;2023-11-21T04:54:58;14.93;;;13.37;;
55465;SDS011;41329;41.594;23.810;2023-11-21T04:57:26;16.50;;;15.07;;
55465;SDS011;41329;41.594;23.810;2023-11-21T04:59:53;15.37;;;13.77;;
55465;SDS011;41329;41.594;23.810;2023-11-21T05:02:19;62.10;;;37.23;;
55465;SDS011;41329;41.594;23.810;2023-11-21T05:04:46;22.43;;;19.80;;
55465;SDS011;41329;41.594;23.810;2023-11-21T05:07:12;19.73;;;17.80;;
55465;SDS011;41329;41.594;23.810;2023-11-21T05:09:41;17.93;;;16.40;;
55465;SDS011;41329;41.594;23.810;2023-11-21T05:12:11;16.20;;;14.90;;
55465;SDS011;41329;41.594;23.810;2023-11-21T05:14:37;101.23;;;52.90;;
55465;SDS011;41329;41.594;23.810;2023-11-21T05:17:03;41.53;;;29.03;;
55465;SDS011;41329;41.594;23.810;2023-11-21T05:19:29;18.93;;;17.00;;
55465;SDS011;41329;41.594;23.810;2023-11-21T05:21:54;28.03;;;18.70;;
55465;SDS011;41329;41.594;23.810;2023-11-21T05:24:20;70.97;;;31.00;;
55465;SDS011;41329;41.594;23.810;2023-11-21T05:26:45;32.60;;;20.33;;
55465;SDS011;41329;41.594;23.810;2023-11-21T05:29:11;54.97;;;23.53;;
55465;SDS011;41329;41.594;23.810;2023-11-21T05:31:36;42.93;;;24.53;;
55465;SDS011;41329;41.594;23.810;2023-11-21T05:34:03;41.37;;;24.03;;
55465;SDS011;41329;41.594;23.810;2023-11-21T05:36:30;103.60;;;33.43;;
55465;SDS011;41329;41.594;23.810;2023-11-21T05:38:56;70.33;;;31.73;;
55465;SDS011;41329;41.594;23.810;2023-11-21T05:41:21;59.80;;;31.00;;
55465;SDS011;41329;41.594;23.810;2023-11-21T05:43:46;96.40;;;46.97;;
55465;SDS011;41329;41.594;23.810;2023-11-21T05:46:12;96.40;;;49.20;;
55465;SDS011;41329;41.594;23.810;2023-11-21T05:48:38;96.07;;;49.53;;
55465;SDS011;41329;41.594;23.810;2023-11-21T05:51:07;100.83;;;52.60;;
55465;SDS011;41329;41.594;23.810;2023-11-21T05:53:33;92.77;;;50.60;;
55465;SDS011;41329;41.594;23.810;2023-11-21T05:55:59;69.60;;;41.00;;
55465;SDS011;41329;41.594;23.810;2023-11-21T05:58:25;87.00;;;46.87;;
55465;SDS011;41329;41.594;23.810;2023-11-21T06:00:50;78.27;;;43.87;;
55465;SDS011;41329;41.594;23.810;2023-11-21T06:03:16;86.43;;;49.07;;
55465;SDS011;41329;41.594;23.810;2023-11-21T06:05:42;143.23;;;71.40;;
55465;SDS011;41329;41.594;23.810;2023-11-21T06:08:08;66.57;;;34.83;;
55465;SDS011;41329;41.594;23.810;2023-11-21T06:10:34;47.97;;;32.17;;
55465;SDS011;41329;41.594;23.810;2023-11-21T06:12:59;79.70;;;44.27;;
55465;SDS011;41329;41.594;23.810;2023-11-21T06:15:24;107.43;;;54.80;;
55465;SDS011;41329;41.594;23.810;2023-11-21T06:17:50;105.23;;;54.07;;
55465;SDS011;41329;41.594;23.810;2023-11-21T06:20:19;84.23;;;47.37;;
55465;SDS011;41329;41.594;23.810;2023-11-21T06:22:46;82.10;;;45.20;;
55465;SDS011;41329;41.594;23.810;2023-11-21T06:25:13;124.80;;;60.00;;
55465;SDS011;41329;41.594;23.810;2023-11-21T06:27:40;124.07;;;60.80;;
55465;SDS011;41329;41.594;23.810;2023-11-21T06:30:07;118.67;;;62.10;;
55465;SDS011;41329;41.594;23.810;2023-11-21T06:32:34;111.93;;;59.43;;
55465;SDS011;41329;41.594;23.810;2023-11-21T06:35:01;120.13;;;61.60;;
55465;SDS011;41329;41.594;23.810;2023-11-21T06:37:27;105.17;;;55.67;;
55465;SDS011;41329;41.594;23.810;2023-11-21T06:39:53;99.60;;;51.80;;
55465;SDS011;41329;41.594;23.810;2023-11-21T06:42:19;77.87;;;47.80;;
55465;SDS011;41329;41.594;23.810;2023-11-21T06:44:48;85.13;;;51.73;;
55465;SDS011;41329;41.594;23.810;2023-11-21T06:47:14;100.03;;;56.23;;
55465;SDS011;41329;41.594;23.810;2023-11-21T06:49:40;77.70;;;44.93;;
55465;SDS011;41329;41.594;23.810;2023-11-21T06:52:07;100.17;;;56.13;;
55465;SDS011;41329;41.594;23.810;2023-11-21T06:54:33;134.63;;;70.90;;
55465;SDS011;41329;41.594;23.810;2023-11-21T06:56:59;116.93;;;61.53;;
55465;SDS011;41329;41.594;23.810;2023-11-21T06:59:25;112.00;;;56.23;;
55465;SDS011;41329;41.594;23.810;2023-11-21T07:01:50;103.77;;;55.17;;
55465;SDS011;41329;41.594;23.810;2023-11-21T07:04:16;114.63;;;63.17;;
55465;SDS011;41329;41.594;23.810;2023-11-21T07:06:43;131.23;;;73.03;;
55465;SDS011;41329;41.594;23.810;2023-11-21T07:09:09;124.00;;;70.70;;
55465;SDS011;41329;41.594;23.810;2023-11-21T07:11:36;86.23;;;52.63;;
55465;SDS011;41329;41.594;23.810;2023-11-21T07:14:03;62.20;;;39.73;;
55465;SDS011;41329;41.594;23.810;2023-11-21T07:16:33;61.60;;;38.07;;
55465;SDS011;41329;41.594;23.810;2023-11-21T07:19:06;38.47;;;27.20;;
55465;SDS011;41329;41.594;23.810;2023-11-21T07:21:35;29.90;;;24.23;;
55465;SDS011;41329;41.594;23.810;2023-11-21T07:24:04;24.23;;;21.60;;
55465;SDS011;41329;41.594;23.810;2023-11-21T07:26:31;29.55;;;25.02;;
55465;SDS011;41329;41.594;23.810;2023-11-21T07:28:58;33.53;;;23.87;;
55465;SDS011;41329;41.594;23.810;2023-11-21T07:31:24;26.03;;;21.80;;
55465;SDS011;41329;41.594;23.810;2023-11-21T07:33:50;24.33;;;21.93;;
55465;SDS011;41329;41.594;23.810;2023-11-21T07:36:16;20.43;;;18.47;;
55465;SDS011;41329;41.594;23.810;2023-11-21T07:38:48;22.23;;;19.93;;
55465;SDS011;41329;41.594;23.810;2023-11-21T07:41:14;17.60;;;16.20;;
55465;SDS011;41329;41.594;23.810;2023-11-21T07:43:40;24.10;;;19.20;;
55465;SDS011;41329;41.594;23.810;2023-11-21T07:46:06;19.30;;;17.37;;
55465;SDS011;41329;41.594;23.810;2023-11-21T07:48:33;20.97;;;18.67;;
55465;SDS011;41329;41.594;23.810;2023-11-21T07:50:59;21.03;;;18.93;;
55465;SDS011;41329;41.594;23.810;2023-11-21T07:53:26;20.17;;;18.03;;
55465;SDS011;41329;41.594;23.810;2023-11-21T07:55:54;18.90;;;17.30;;
55465;SDS011;41329;41.594;23.810;2023-11-21T07:58:20;18.80;;;16.33;;
55465;SDS011;41329;41.594;23.810;2023-11-21T08:00:45;19.57;;;17.87;;
55465;SDS011;41329;41.594;23.810;2023-11-21T08:03:11;26.43;;;23.03;;
55465;SDS011;41329;41.594;23.810;2023-11-21T08:05:38;25.83;;;22.70;;
55465;SDS011;41329;41.594;23.810;2023-11-21T08:08:04;26.97;;;24.13;;
55465;SDS011;41329;41.594;23.810;2023-11-21T08:10:29;24.00;;;21.60;;
55465;SDS011;41329;41.594;23.810;2023-11-21T08:12:55;20.63;;;18.47;;
55465;SDS011;41329;41.594;23.810;2023-11-21T08:15:20;28.53;;;22.63;;
55465;SDS011;41329;41.594;23.810;2023-11-21T08:17:46;22.30;;;20.10;;
55465;SDS011;41329;41.594;23.810;2023-11-21T08:20:12;19.73;;;17.83;;
55465;SDS011;41329;41.594;23.810;2023-11-21T08:22:41;18.33;;;16.77;;
55465;SDS011;41329;41.594;23.810;2023-11-21T08:25:10;17.77;;;16.03;;
55465;SDS011;41329;41.594;23.810;2023-11-21T08:27:35;23.77;;;18.73;;
55465;SDS011;41329;41.594;23.810;2023-11-21T08:30:02;14.03;;;12.70;;
55465;SDS011;41329;41.594;23.810;2023-11-21T08:32:28;11.77;;;10.87;;
55465;SDS011;41329;41.594;23.810;2023-11-21T08:34:57;8.80;;;8.20;;
55465;SDS011;41329;41.594;23.810;2023-11-21T08:37:22;8.33;;;7.67;;
55465;SDS011;41329;41.594;23.810;2023-11-21T08:39:48;7.83;;;7.03;;
55465;SDS011;41329;41.594;23.810;2023-11-21T08:42:14;9.27;;;7.60;;
55465;SDS011;41329;41.594;23.810;2023-11-21T08:44:40;6.23;;;5.60;;
55465;SDS011;41329;41.594;23.810;2023-11-21T08:47:06;5.20;;;4.80;;
55465;SDS011;41329;41.594;23.810;2023-11-21T08:49:32;6.37;;;5.73;;
55465;SDS011;41329;41.594;23.810;2023-11-21T08:51:58;6.43;;;5.93;;
55465;SDS011;41329;41.594;23.810;2023-11-21T08:54:26;6.67;;;4.63;;
55465;SDS011;41329;41.594;23.810;2023-11-21T08:56:52;5.30;;;4.80;;
55465;SDS011;41329;41.594;23.810;2023-11-21T08:59:19;5.40;;;5.10;;
55465;SDS011;41329;41.594;23.810;2023-11-21T09:01:45;5.37;;;4.97;;
55465;SDS011;41329;41.594;23.810;2023-11-21T09:04:11;4.97;;;4.67;;
55465;SDS011;41329;41.594;23.810;2023-11-21T09:06:38;4.43;;;4.13;;
55465;SDS011;41329;41.594;23.810;2023-11-21T09:09:05;6.73;;;6.10;;
55465;SDS011;41329;41.594;23.810;2023-11-21T09:11:31;8.27;;;5.77;;
55465;SDS011;41329;41.594;23.810;2023-11-21T09:13:59;3.63;;;3.33;;
55465;SDS011;41329;41.594;23.810;2023-11-21T09:16:25;4.80;;;4.20;;
55465;SDS011;41329;41.594;23.810;2023-11-21T09:18:50;3.60;;;3.30;;
55465;SDS011;41329;41.594;23.810;2023-11-21T09:21:16;3.73;;;3.33;;
55465;SDS011;41329;41.594;23.810;2023-11-21T09:23:44;3.33;;;3.13;;
55465;SDS011;41329;41.594;23.810;2023-11-21T09:26:09;3.70;;;3.40;;
55465;SDS011;41329;41.594;23.810;2023-11-21T09:28:35;3.00;;;2.80;;
55465;SDS011;41329;41.594;23.810;2023-11-21T09:31:03;4.00;;;3.73;;
55465;SDS011;41329;41.594;23.810;2023-11-21T09:33:29;3.27;;;2.97;;
55465;SDS011;41329;41.594;23.810;2023-11-21T09:35:56;3.90;;;3.60;;
55465;SDS011;41329;41.594;23.810;2023-11-21T09:38:22;4.43;;;4.13;;
55465;SDS011;41329;41.594;23.810;2023-11-21T09:40:47;3.90;;;3.60;;
55465;SDS011;41329;41.594;23.810;2023-11-21T09:43:17;3.67;;;3.47;;
55465;SDS011;41329;41.594;23.810;2023-11-21T09:45:46;4.23;;;3.93;;
55465;SDS011;41329;41.594;23.810;2023-11-21T09:48:13;4.53;;;4.25;;
55465;SDS011;41329;41.594;23.810;2023-11-21T09:50:42;4.17;;;3.87;;
55465;SDS011;41329;41.594;23.810;2023-11-21T09:53:13;4.10;;;3.80;;
55465;SDS011;41329;41.594;23.810;2023-11-21T09:55:44;3.50;;;3.20;;
55465;SDS011;41329;41.594;23.810;2023-11-21T09:58:11;4.33;;;4.03;;
55465;SDS011;41329;41.594;23.810;2023-11-21T10:00:41;4.77;;;4.47;;
55465;SDS011;41329;41.594;23.810;2023-11-21T10:03:08;6.20;;;4.78;;
55465;SDS011;41329;41.594;23.810;2023-11-21T10:05:34;6.43;;;5.93;;
55465;SDS011;41329;41.594;23.810;2023-11-21T10:08:00;2.50;;;2.30;;
55465;SDS011;41329;41.594;23.810;2023-11-21T10:10:27;4.97;;;4.57;;
55465;SDS011;41329;41.594;23.810;2023-11-21T10:12:55;5.00;;;4.60;;
55465;SDS011;41329;41.594;23.810;2023-11-21T10:15:22;4.17;;;3.77;;
55465;SDS011;41329;41.594;23.810;2023-11-21T10:17:50;4.23;;;3.80;;
55465;SDS011;41329;41.594;23.810;2023-11-21T10:20:19;4.80;;;4.40;;
55465;SDS011;41329;41.594;23.810;2023-11-21T10:22:45;6.90;;;6.27;;
55465;SDS011;41329;41.594;23.810;2023-11-21T10:25:11;4.23;;;3.93;;
55465;SDS011;41329;41.594;23.810;2023-11-21T10:27:39;6.73;;;5.77;;
55465;SDS011;41329;41.594;23.810;2023-11-21T10:30:06;10.17;;;9.37;;
55465;SDS011;41329;41.594;23.810;2023-11-21T10:32:42;12.70;;;10.67;;
55465;SDS011;41329;41.594;23.810;2023-11-21T10:35:08;9.83;;;9.03;;
55465;SDS011;41329;41.594;23.810;2023-11-21T10:37:38;11.70;;;10.90;;
55465;SDS011;41329;41.594;23.810;2023-11-21T10:40:11;9.73;;;9.03;;
55465;SDS011;41329;41.594;23.810;2023-11-21T10:42:37;6.47;;;5.87;;
55465;SDS011;41329;41.594;23.810;2023-11-21T10:45:04;6.80;;;6.30;;
55465;SDS011;41329;41.594;23.810;2023-11-21T10:47:37;8.87;;;8.17;;
55465;SDS011;41329;41.594;23.810;2023-11-21T10:50:04;7.90;;;7.23;;
55465;SDS011;41329;41.594;23.810;2023-11-21T10:52:30;8.90;;;8.20;;
55465;SDS011;41329;41.594;23.810;2023-11-21T10:54:56;9.33;;;8.47;;
55465;SDS011;41329;41.594;23.810;2023-11-21T10:57:25;8.37;;;7.60;;
55465;SDS011;41329;41.594;23.810;2023-11-21T10:59:51;7.93;;;7.23;;
55465;SDS011;41329;41.594;23.810;2023-11-21T11:02:25;7.93;;;7.20;;
55465;SDS011;41329;41.594;23.810;2023-11-21T11:04:53;9.17;;;8.57;;
55465;SDS011;41329;41.594;23.810;2023-11-21T11:07:21;10.50;;;9.60;;
55465;SDS011;41329;41.594;23.810;2023-11-21T11:12:17;6.80;;;6.33;;
55465;SDS011;41329;41.594;23.810;2023-11-21T11:14:44;6.60;;;6.00;;
55465;SDS011;41329;41.594;23.810;2023-11-21T11:17:10;10.70;;;9.90;;
55465;SDS011;41329;41.594;23.810;2023-11-21T11:19:36;7.93;;;7.33;;
55465;SDS011;41329;41.594;23.810;2023-11-21T11:38:32;4.70;;;4.33;;
55465;SDS011;41329;41.594;23.810;2023-11-21T11:41:04;8.47;;;7.77;;
55465;SDS011;41329;41.594;23.810;2023-11-21T11:43:30;8.38;;;7.78;;
55465;SDS011;41329;41.594;23.810;2023-11-21T11:46:09;8.63;;;7.87;;
55465;SDS011;41329;41.594;23.810;2023-11-21T11:48:38;7.97;;;7.37;;
55465;SDS011;41329;41.594;23.810;2023-11-21T11:51:11;8.13;;;7.53;;
55465;SDS011;41329;41.594;23.810;2023-11-21T11:53:46;10.80;;;9.75;;
55465;SDS011;41329;41.594;23.810;2023-11-21T11:56:20;11.65;;;10.43;;
55465;SDS011;41329;41.594;23.810;2023-11-21T11:58:47;14.18;;;12.63;;
55465;SDS011;41329;41.594;23.810;2023-11-21T12:01:15;11.65;;;9.85;;
55465;SDS011;41329;41.594;23.810;2023-11-21T12:03:42;14.52;;;11.40;;
55465;SDS011;41329;41.594;23.810;2023-11-21T12:06:08;12.70;;;11.40;;
55465;SDS011;41329;41.594;23.810;2023-11-21T12:08:36;13.40;;;12.07;;
55465;SDS011;41329;41.594;23.810;2023-11-21T12:11:03;13.70;;;12.32;;
55465;SDS011;41329;41.594;23.810;2023-11-21T12:13:29;14.45;;;13.55;;
55465;SDS011;41329;41.594;23.810;2023-11-21T12:15:55;22.85;;;13.65;;
55465;SDS011;41329;41.594;23.810;2023-11-21T12:18:21;12.65;;;11.43;;
55465;SDS011;41329;41.594;23.810;2023-11-21T12:20:46;12.27;;;11.20;;
55465;SDS011;41329;41.594;23.810;2023-11-21T12:23:15;12.02;;;10.85;;
55465;SDS011;41329;41.594;23.810;2023-11-21T12:25:42;12.43;;;11.45;;
55465;SDS011;41329;41.594;23.810;2023-11-21T12:28:08;11.52;;;10.55;;
55465;SDS011;41329;41.594;23.810;2023-11-21T12:30:34;11.38;;;10.48;;
55465;SDS011;41329;41.594;23.810;2023-11-21T12:33:01;9.10;;;8.18;;
55465;SDS011;41329;41.594;23.810;2023-11-21T12:35:30;7.72;;;7.00;;
55465;SDS011;41329;41.594;23.810;2023-11-21T12:37:59;7.90;;;7.07;;
55465;SDS011;41329;41.594;23.810;2023-11-21T12:40:25;4.97;;;4.68;;
55465;SDS011;41329;41.594;23.810;2023-11-21T12:42:54;6.25;;;5.75;;
55465;SDS011;41329;41.594;23.810;2023-11-21T12:45:27;6.95;;;6.35;;
55465;SDS011;41329;41.594;23.810;2023-11-21T12:48:00;7.65;;;7.05;;
55465;SDS011;41329;41.594;23.810;2023-11-21T12:50:33;5.53;;;5.13;;
55465;SDS011;41329;41.594;23.810;2023-11-21T12:53:04;4.80;;;4.50;;
55465;SDS011;41329;41.594;23.810;2023-11-21T12:55:35;12.43;;;11.25;;
55465;SDS011;41329;41.594;23.810;2023-11-21T12:58:07;9.00;;;8.30;;
55465;SDS011;41329;41.594;23.810;2023-11-21T13:00:35;10.55;;;9.65;;
55465;SDS011;41329;41.594;23.810;2023-11-21T13:03:07;8.10;;;7.30;;
55465;SDS011;41329;41.594;23.810;2023-11-21T13:05:34;12.93;;;9.75;;
55465;SDS011;41329;41.594;23.810;2023-11-21T13:08:05;9.18;;;8.00;;
55465;SDS011;41329;41.594;23.810;2023-11-21T13:10:33;7.90;;;7.20;;
55465;SDS011;41329;41.594;23.810;2023-11-21T13:13:02;28.75;;;16.17;;
55465;SDS011;41329;41.594;23.810;2023-11-21T13:15:30;7.38;;;5.10;;
55465;SDS011;41329;41.594;23.810;2023-11-21T13:17:57;5.60;;;5.13;;
55465;SDS011;41329;41.594;23.810;2023-11-21T13:20:24;10.70;;;10.07;;
55465;SDS011;41329;41.594;23.810;2023-11-21T13:22:54;14.00;;;11.75;;
55465;SDS011;41329;41.594;23.810;2023-11-21T13:25:24;32.20;;;19.80;;
55465;SDS011;41329;41.594;23.810;2023-11-21T13:27:53;6.55;;;5.95;;
55465;SDS011;41329;41.594;23.810;2023-11-21T13:30:22;6.00;;;5.50;;
55465;SDS011;41329;41.594;23.810;2023-11-21T13:32:56;11.80;;;10.95;;
55465;SDS011;41329;41.594;23.810;2023-11-21T13:35:25;8.95;;;8.25;;
55465;SDS011;41329;41.594;23.810;2023-11-21T13:38:03;9.57;;;8.77;;
55465;SDS011;41329;41.594;23.810;2023-11-21T13:40:32;11.82;;;10.73;;
55465;SDS011;41329;41.594;23.810;2023-11-21T13:43:00;9.82;;;8.93;;
55465;SDS011;41329;41.594;23.810;2023-11-21T13:45:29;9.93;;;8.98;;
55465;SDS011;41329;41.594;23.810;2023-11-21T13:47:56;9.63;;;8.95;;
55465;SDS011;41329;41.594;23.810;2023-11-21T13:50:27;10.20;;;9.43;;
55465;SDS011;41329;41.594;23.810;2023-11-21T13:53:02;13.88;;;12.48;;
55465;SDS011;41329;41.594;23.810;2023-11-21T13:55:35;13.68;;;12.52;;
55465;SDS011;41329;41.594;23.810;2023-11-21T13:58:02;12.27;;;11.05;;
55465;SDS011;41329;41.594;23.810;2023-11-21T14:00:29;14.75;;;13.48;;
55465;SDS011;41329;41.594;23.810;2023-11-21T14:03:10;80.60;;;53.55;;
55465;SDS011;41329;41.594;23.810;2023-11-21T14:05:44;34.40;;;26.77;;
55465;SDS011;41329;41.594;23.810;2023-11-21T14:08:13;39.28;;;23.67;;
55465;SDS011;41329;41.594;23.810;2023-11-21T14:10:41;21.85;;;19.52;;
55465;SDS011;41329;41.594;23.810;2023-11-21T14:13:15;21.85;;;19.88;;
55465;SDS011;41329;41.594;23.810;2023-11-21T14:15:41;20.27;;;18.23;;
55465;SDS011;41329;41.594;23.810;2023-11-21T14:18:10;23.98;;;21.35;;
55465;SDS011;41329;41.594;23.810;2023-11-21T14:20:37;31.52;;;24.00;;
55465;SDS011;41329;41.594;23.810;2023-11-21T14:23:03;23.65;;;21.42;;
55465;SDS011;41329;41.594;23.810;2023-11-21T14:25:31;22.30;;;20.38;;
55465;SDS011;41329;41.594;23.810;2023-11-21T14:27:57;22.15;;;20.25;;
55465;SDS011;41329;41.594;23.810;2023-11-21T14:30:22;20.02;;;17.40;;
55465;SDS011;41329;41.594;23.810;2023-11-21T14:32:48;19.10;;;17.20;;